Time;durP1;ratioP1;P1;durP2;ratioP2;P2;SDS_P1;SDS_P2;PMS_P1;PMS_P2;Temp;Humidity;BMP_temperature;BMP_pressure;BME280_temperature;BME280_humidity;BME280_pressure;Samples;Min_cycle;Max_cycle;Signal;HPM_P1;HPM_P2
2023/09/30 00:00:00;;;;;;;3.45;0.90;;;;;;;13.17;100.00;101080.38;5056770;28;20056;-64
2023/09/30 00:02:27;;;;;;;4.20;0.98;;;;;;;13.16;100.00;101081.31;5071390;28;20131;-64
2023/09/30 00:04:54;;;;;;;2.67;0.85;;;;;;;13.09;100.00;101087.78;5062992;28;20110;-64
2023/09/30 00:07:21;;;;;;;3.00;0.82;;;;;;;13.03;100.00;101088.00;5057371;28;20490;-65
2023/09/30 00:09:49;;;;;;;2.30;1.00;;;;;;;12.97;100.00;101104.06;5070771;28;20064;-65
2023/09/30 00:12:15;;;;;;;5.03;1.10;;;;;;;12.92;100.00;101104.22;5070265;28;20182;-65
2023/09/30 00:14:43;;;;;;;2.67;0.90;;;;;;;12.83;100.00;101104.63;5057864;28;20053;-65
2023/09/30 00:17:09;;;;;;;2.88;0.80;;;;;;;12.85;100.00;101108.88;5052198;28;20053;-65
2023/09/30 00:19:37;;;;;;;4.10;1.20;;;;;;;12.85;100.00;101113.28;5059499;28;20053;-65
2023/09/30 00:22:04;;;;;;;5.32;1.10;;;;;;;12.77;100.00;101110.97;5065202;28;20048;-65
2023/09/30 00:24:30;;;;;;;3.45;1.10;;;;;;;12.72;100.00;101112.94;5061017;28;20055;-65
2023/09/30 00:26:57;;;;;;;2.40;1.42;;;;;;;12.66;100.00;101114.06;5066751;28;20052;-65
2023/09/30 00:29:24;;;;;;;3.92;0.90;;;;;;;12.60;100.00;101131.81;5068368;28;20052;-65
2023/09/30 00:31:50;;;;;;;3.97;1.00;;;;;;;12.33;100.00;101129.38;5068395;28;20051;-65
2023/09/30 00:34:17;;;;;;;2.45;0.95;;;;;;;12.16;100.00;101130.00;5068300;28;20067;-65
2023/09/30 00:36:44;;;;;;;2.47;0.93;;;;;;;11.99;100.00;101133.28;5063315;28;20052;-65
2023/09/30 00:39:10;;;;;;;3.63;1.00;;;;;;;11.86;100.00;101127.56;5069107;28;20074;-65
2023/09/30 00:41:40;;;;;;;5.00;1.15;;;;;;;11.92;100.00;101130.00;5070248;28;20402;-65
2023/09/30 00:44:09;;;;;;;2.33;1.00;;;;;;;12.02;100.00;101125.25;5064193;28;20086;-65
2023/09/30 00:46:41;;;;;;;1.48;0.98;;;;;;;12.10;100.00;101130.25;5055029;28;20041;-65
2023/09/30 00:49:08;;;;;;;5.90;1.23;;;;;;;12.09;100.00;101139.91;5069566;28;20131;-65
2023/09/30 00:51:35;;;;;;;4.95;1.10;;;;;;;11.98;100.00;101139.41;5066375;28;20122;-65
2023/09/30 00:54:02;;;;;;;3.50;1.00;;;;;;;11.94;100.00;101145.69;5053120;28;20111;-65
2023/09/30 00:56:30;;;;;;;4.95;1.00;;;;;;;11.87;100.00;101141.56;5059681;28;20390;-65
2023/09/30 00:58:58;;;;;;;2.90;0.93;;;;;;;11.91;100.00;101149.28;5070189;28;20053;-65
2023/09/30 01:01:25;;;;;;;3.67;1.13;;;;;;;11.86;100.00;101153.81;5055707;28;20056;-65
2023/09/30 01:03:52;;;;;;;3.20;0.90;;;;;;;11.91;100.00;101157.16;5069835;28;20079;-64
2023/09/30 01:06:19;;;;;;;1.88;0.77;;;;;;;11.80;100.00;101148.78;5049139;28;20095;-64
2023/09/30 01:08:46;;;;;;;2.33;1.00;;;;;;;11.84;100.00;101154.78;5067221;28;20079;-64
2023/09/30 01:11:13;;;;;;;3.35;0.90;;;;;;;11.74;100.00;101162.16;5068910;28;20402;-64
2023/09/30 01:13:40;;;;;;;2.50;0.90;;;;;;;11.73;100.00;101170.91;5070169;28;20052;-64
2023/09/30 01:16:11;;;;;;;6.25;1.20;;;;;;;11.64;100.00;101177.34;5058106;28;20052;-64
2023/09/30 01:18:42;;;;;;;3.13;1.00;;;;;;;11.57;100.00;101173.22;5066923;28;20054;-65
2023/09/30 01:21:10;;;;;;;3.38;1.10;;;;;;;11.54;100.00;101175.94;5070192;28;20135;-65
2023/09/30 01:23:38;;;;;;;1.98;0.90;;;;;;;11.50;100.00;101183.06;5065992;28;20351;-64
2023/09/30 01:26:15;;;;;;;2.20;0.90;;;;;;;11.36;100.00;101174.81;5056394;28;20048;-64
2023/09/30 01:28:41;;;;;;;2.47;1.00;;;;;;;11.44;100.00;101188.53;5058295;28;20055;-64
2023/09/30 01:31:08;;;;;;;2.63;0.90;;;;;;;11.35;100.00;101180.94;5064833;28;20056;-64
2023/09/30 01:33:35;;;;;;;2.00;0.82;;;;;;;11.41;100.00;101188.63;5069113;28;20052;-65
2023/09/30 01:36:02;;;;;;;2.72;0.90;;;;;;;11.32;100.00;101175.81;5055452;28;20482;-65
2023/09/30 01:38:28;;;;;;;3.92;1.15;;;;;;;11.31;100.00;101180.19;5062677;28;20136;-65
2023/09/30 01:40:55;;;;;;;5.30;1.13;;;;;;;11.28;100.00;101182.06;5051671;28;20040;-65
2023/09/30 01:43:26;;;;;;;2.42;0.93;;;;;;;11.37;100.00;101187.00;5062744;28;20424;-64
2023/09/30 01:45:52;;;;;;;2.25;0.90;;;;;;;11.27;100.00;101186.44;5064290;28;20475;-65
2023/09/30 01:48:19;;;;;;;3.92;1.00;;;;;;;11.21;100.00;101190.13;5069383;28;20595;-65
2023/09/30 01:50:47;;;;;;;3.42;1.00;;;;;;;11.15;100.00;101195.56;5060080;28;20072;-64
2023/09/30 01:53:14;;;;;;;3.78;0.90;;;;;;;11.19;100.00;101188.47;5064526;28;20072;-65
2023/09/30 01:55:41;;;;;;;2.20;0.90;;;;;;;11.25;100.00;101183.03;5068815;28;20052;-65
2023/09/30 01:58:10;;;;;;;2.90;0.90;;;;;;;11.26;100.00;101179.50;5069292;28;20057;-65
2023/09/30 02:00:37;;;;;;;1.60;0.82;;;;;;;11.24;100.00;101189.16;5055871;28;20059;-65
2023/09/30 02:03:04;;;;;;;2.25;0.90;;;;;;;11.24;100.00;101197.03;5059432;28;20052;-65
2023/09/30 02:05:31;;;;;;;3.38;1.40;;;;;;;11.20;100.00;101195.44;5064480;28;20041;-65
2023/09/30 02:07:58;;;;;;;2.42;1.10;;;;;;;11.10;100.00;101200.13;5060848;28;20390;-65
2023/09/30 02:10:24;;;;;;;1.13;0.80;;;;;;;11.02;100.00;101199.50;5073767;28;20051;-64
2023/09/30 02:12:51;;;;;;;2.55;0.93;;;;;;;10.98;100.00;101200.53;5073113;28;20049;-64
2023/09/30 02:15:18;;;;;;;4.68;0.90;;;;;;;10.95;100.00;101205.84;5072972;28;20052;-64
2023/09/30 02:17:45;;;;;;;2.83;0.90;;;;;;;10.87;100.00;101216.59;5072277;28;20044;-65
2023/09/30 02:20:15;;;;;;;2.42;0.90;;;;;;;10.92;100.00;101219.88;5065048;28;20044;-65
2023/09/30 02:22:46;;;;;;;3.53;1.00;;;;;;;10.87;100.00;101220.94;5058660;28;20075;-65
2023/09/30 02:25:13;;;;;;;2.40;1.00;;;;;;;10.94;100.00;101215.47;5072278;28;20137;-65
2023/09/30 02:27:41;;;;;;;3.65;1.10;;;;;;;10.88;100.00;101217.44;5067860;28;20053;-65
2023/09/30 02:30:13;;;;;;;4.32;1.17;;;;;;;10.91;100.00;101214.72;5063179;28;20056;-65
2023/09/30 02:32:41;;;;;;;6.13;1.20;;;;;;;10.84;100.00;101211.44;5056716;28;20044;-65
2023/09/30 02:35:12;;;;;;;4.78;1.30;;;;;;;10.99;100.00;101229.25;5073132;28;20479;-65
2023/09/30 02:37:38;;;;;;;6.43;1.70;;;;;;;10.92;100.00;101213.78;5071066;28;20048;-65
2023/09/30 02:40:09;;;;;;;3.75;1.48;;;;;;;11.09;100.00;101222.00;5063576;28;20053;-64
2023/09/30 02:42:40;;;;;;;3.92;1.13;;;;;;;11.14;100.00;101230.56;5067991;28;20090;-65
2023/09/30 02:45:09;;;;;;;3.42;1.13;;;;;;;11.05;100.00;101215.13;5071923;28;20547;-65
2023/09/30 02:47:36;;;;;;;3.63;1.20;;;;;;;11.08;100.00;101238.59;5071369;28;20456;-65
2023/09/30 02:50:06;;;;;;;4.55;1.15;;;;;;;11.10;100.00;101239.44;5072500;28;20614;-65
2023/09/30 02:52:32;;;;;;;3.85;1.05;;;;;;;11.07;100.00;101239.53;5070889;28;20094;-65
2023/09/30 02:54:59;;;;;;;4.10;1.23;;;;;;;11.08;100.00;101246.47;5072964;28;20048;-65
2023/09/30 02:57:29;;;;;;;4.13;1.00;;;;;;;11.09;100.00;101255.22;5066222;28;20044;-65
2023/09/30 02:59:56;;;;;;;3.15;1.08;;;;;;;11.01;100.00;101260.66;5072052;28;20388;-64
2023/09/30 03:02:23;;;;;;;1.98;0.90;;;;;;;10.96;100.00;101254.72;5081316;28;20043;-64
2023/09/30 03:04:51;;;;;;;5.03;1.27;;;;;;;11.00;100.00;101270.31;5067662;28;20529;-64
2023/09/30 03:07:20;;;;;;;3.08;0.98;;;;;;;10.99;100.00;101252.00;5071266;28;20110;-64
2023/09/30 03:09:46;;;;;;;2.70;1.00;;;;;;;10.94;100.00;101248.66;5071535;28;20462;-64
2023/09/30 03:12:14;;;;;;;3.30;1.15;;;;;;;10.87;100.00;101248.00;5070733;28;20060;-64
2023/09/30 03:14:41;;;;;;;3.60;1.13;;;;;;;10.88;100.00;101254.97;5077310;28;20144;-64
2023/09/30 03:17:11;;;;;;;4.15;1.35;;;;;;;10.96;100.00;101263.44;5071763;28;20059;-64
2023/09/30 03:19:39;;;;;;;5.53;1.02;;;;;;;10.98;100.00;101266.03;5071856;28;20757;-64
2023/09/30 03:22:10;;;;;;;3.17;1.00;;;;;;;10.99;100.00;101272.97;5057640;28;20161;-64
2023/09/30 03:24:39;;;;;;;4.40;1.02;;;;;;;10.94;100.00;101273.13;5066962;28;20056;-64
2023/09/30 03:27:07;;;;;;;3.88;0.90;;;;;;;11.04;100.00;101271.06;5071470;28;20494;-64
2023/09/30 03:29:38;;;;;;;3.20;1.00;;;;;;;11.03;100.00;101279.84;5071750;28;20056;-64
2023/09/30 03:32:05;;;;;;;0.90;0.70;;;;;;;11.04;100.00;101291.19;5071960;28;20570;-64
2023/09/30 03:34:32;;;;;;;1.63;0.90;;;;;;;11.07;100.00;101301.56;5067579;28;20044;-64
2023/09/30 03:36:58;;;;;;;2.50;0.90;;;;;;;11.04;100.00;101297.25;5061549;28;20425;-64
2023/09/30 03:39:27;;;;;;;2.20;0.80;;;;;;;11.00;100.00;101296.50;5068669;28;20596;-64
2023/09/30 03:41:58;;;;;;;2.22;0.80;;;;;;;11.00;100.00;101293.88;5060751;28;20467;-65
2023/09/30 03:44:25;;;;;;;1.80;0.77;;;;;;;10.98;100.00;101279.97;5071040;28;20391;-64
2023/09/30 03:46:52;;;;;;;4.03;1.10;;;;;;;10.98;100.00;101286.97;5070797;28;20056;-64
2023/09/30 03:49:22;;;;;;;1.85;0.80;;;;;;;10.94;100.00;101285.34;5070784;28;20052;-65
2023/09/30 03:51:50;;;;;;;1.63;0.80;;;;;;;10.70;100.00;101248.50;5064261;28;20053;-65
2023/09/30 03:54:17;;;;;;;1.73;0.77;;;;;;;10.89;100.00;101280.25;5066887;28;20053;-65
2023/09/30 03:56:47;;;;;;;1.63;0.80;;;;;;;10.78;100.00;101280.59;5071362;28;20048;-65
2023/09/30 03:59:15;;;;;;;4.72;0.90;;;;;;;10.71;100.00;101284.28;5062643;28;20044;-65
2023/09/30 04:01:42;;;;;;;3.25;1.02;;;;;;;10.68;100.00;101297.47;5071269;28;20123;-65
2023/09/30 04:04:09;;;;;;;2.05;0.90;;;;;;;10.57;100.00;101305.63;5059521;28;20686;-65
2023/09/30 04:06:38;;;;;;;3.95;1.02;;;;;;;10.67;100.00;101315.84;5067016;28;20068;-65
2023/09/30 04:09:12;;;;;;;2.70;0.98;;;;;;;10.81;100.00;101314.53;5070695;28;20466;-65
2023/09/30 04:11:39;;;;;;;4.13;1.10;;;;;;;10.91;100.00;101314.28;5066912;28;20079;-65
2023/09/30 04:14:07;;;;;;;2.88;1.05;;;;;;;10.90;100.00;101312.56;5070567;28;20053;-64
2023/09/30 04:16:35;;;;;;;2.25;0.93;;;;;;;10.87;100.00;101312.63;5066429;28;20558;-65
2023/09/30 04:19:02;;;;;;;3.38;0.93;;;;;;;10.93;100.00;101313.31;5064841;28;20133;-65
2023/09/30 04:21:32;;;;;;;3.03;0.80;;;;;;;10.94;100.00;101317.66;5070959;28;20099;-65
2023/09/30 04:23:58;;;;;;;3.20;0.90;;;;;;;10.84;100.00;101313.59;5070092;28;20046;-64
2023/09/30 04:26:25;;;;;;;1.77;0.90;;;;;;;10.67;100.00;101321.94;5070343;28;20048;-64
2023/09/30 04:28:53;;;;;;;2.08;0.80;;;;;;;10.73;100.00;101337.47;5069983;28;20055;-65
2023/09/30 04:31:21;;;;;;;1.77;0.90;;;;;;;10.79;100.00;101336.44;5070096;28;20059;-65
2023/09/30 04:33:50;;;;;;;2.80;0.90;;;;;;;10.86;100.00;101347.59;5070798;28;20090;-65
2023/09/30 04:36:17;;;;;;;2.15;0.80;;;;;;;10.61;100.00;101322.13;5070064;28;20127;-64
2023/09/30 04:38:44;;;;;;;1.42;0.80;;;;;;;10.67;100.00;101336.78;5069589;28;20102;-64
2023/09/30 04:41:11;;;;;;;2.38;0.90;;;;;;;10.64;100.00;101325.50;5066850;28;20048;-64
2023/09/30 04:43:39;;;;;;;3.55;1.13;;;;;;;10.38;100.00;101301.81;5063181;28;20055;-64
2023/09/30 04:46:07;;;;;;;1.13;0.90;;;;;;;10.44;100.00;101336.50;5069010;28;20044;-64
2023/09/30 04:48:34;;;;;;;1.23;0.85;;;;;;;10.31;100.00;101331.66;5069953;28;20394;-64
2023/09/30 04:51:06;;;;;;;3.25;0.90;;;;;;;10.42;100.00;101363.66;5070285;28;20048;-64
2023/09/30 04:53:33;;;;;;;1.80;0.90;;;;;;;10.38;100.00;101356.78;5070014;28;20048;-65
2023/09/30 04:56:01;;;;;;;2.95;1.00;;;;;;;10.50;100.00;101373.91;5070297;28;20502;-64
2023/09/30 04:58:29;;;;;;;1.45;0.93;;;;;;;10.42;100.00;101366.28;5069197;28;20126;-64
2023/09/30 05:00:56;;;;;;;2.25;0.90;;;;;;;10.57;100.00;101368.47;5069889;28;20094;-64
2023/09/30 05:03:24;;;;;;;3.00;1.20;;;;;;;10.45;100.00;101358.34;5070506;28;20071;-64
2023/09/30 05:05:55;;;;;;;5.72;1.17;;;;;;;10.34;100.00;101369.09;5069843;28;20135;-64
2023/09/30 05:08:23;;;;;;;2.30;0.90;;;;;;;10.25;100.00;101380.63;5069046;28;20076;-65
2023/09/30 05:10:50;;;;;;;3.35;1.00;;;;;;;10.23;100.00;101385.06;5069655;28;20044;-65
2023/09/30 05:13:17;;;;;;;2.45;0.90;;;;;;;10.20;100.00;101373.81;5069311;28;20045;-65
2023/09/30 05:15:44;;;;;;;3.30;1.00;;;;;;;10.26;100.00;101379.72;5069338;28;20051;-64
2023/09/30 05:18:10;;;;;;;3.33;1.00;;;;;;;10.18;100.00;101366.00;5067584;28;20049;-64
2023/09/30 05:20:38;;;;;;;1.45;0.90;;;;;;;10.20;100.00;101392.97;5054645;28;20052;-64
2023/09/30 05:23:07;;;;;;;3.50;1.08;;;;;;;9.95;100.00;101391.84;5078488;28;20153;-64
2023/09/30 05:25:33;;;;;;;2.20;1.33;;;;;;;10.02;100.00;101394.31;5069837;28;20048;-65
2023/09/30 05:28:00;;;;;;;2.78;0.90;;;;;;;10.23;100.00;101405.13;5062316;28;20057;-65
2023/09/30 05:30:27;;;;;;;2.72;0.90;;;;;;;10.22;100.00;101408.66;5062614;28;20324;-65
2023/09/30 05:32:54;;;;;;;3.55;1.00;;;;;;;10.39;100.00;101430.06;5064454;28;20084;-65
2023/09/30 05:35:22;;;;;;;2.92;1.02;;;;;;;10.35;100.00;101417.91;5051921;28;20041;-64
2023/09/30 05:37:52;;;;;;;5.38;1.30;;;;;;;10.31;100.00;101420.63;5057210;28;20127;-64
2023/09/30 05:40:21;;;;;;;2.42;0.90;;;;;;;10.11;100.00;101403.69;5069355;28;20521;-65
2023/09/30 05:42:50;;;;;;;1.50;0.80;;;;;;;10.22;100.00;101406.03;5066046;28;20098;-65
2023/09/30 05:45:16;;;;;;;2.67;0.90;;;;;;;10.25;100.00;101398.06;5049940;28;20060;-65
2023/09/30 05:47:44;;;;;;;2.58;0.90;;;;;;;10.36;100.00;101406.56;5062483;28;20052;-65
2023/09/30 05:50:17;;;;;;;2.95;0.90;;;;;;;10.36;100.00;101408.31;5056468;28;20078;-64
2023/09/30 05:52:46;;;;;;;1.77;0.80;;;;;;;10.30;100.00;101422.38;5068962;28;20048;-64
2023/09/30 05:55:14;;;;;;;3.75;1.00;;;;;;;10.33;100.00;101424.09;5062240;28;20170;-65
2023/09/30 05:57:42;;;;;;;3.80;1.08;;;;;;;10.34;100.00;101417.94;5056385;28;20052;-64
2023/09/30 06:00:14;;;;;;;2.42;1.10;;;;;;;10.21;100.00;101420.84;5059794;28;20056;-65
2023/09/30 06:02:42;;;;;;;2.22;1.00;;;;;;;10.35;100.00;101422.31;5069136;28;20048;-64
2023/09/30 06:05:10;;;;;;;3.33;1.00;;;;;;;10.29;100.00;101414.56;5064619;28;20045;-64
2023/09/30 06:07:37;;;;;;;3.33;1.08;;;;;;;10.45;100.00;101410.69;5059075;28;20080;-65
2023/09/30 06:10:05;;;;;;;2.03;0.90;;;;;;;10.63;100.00;101422.44;5059365;28;20052;-65
2023/09/30 06:12:32;;;;;;;2.10;0.90;;;;;;;10.66;100.00;101426.72;5061522;28;20063;-64
2023/09/30 06:14:58;;;;;;;2.83;1.10;;;;;;;10.33;100.00;101430.19;5056542;28;20433;-64
2023/09/30 06:17:26;;;;;;;3.20;0.90;;;;;;;10.29;100.00;101425.91;5068273;28;20080;-65
2023/09/30 06:19:52;;;;;;;4.30;1.10;;;;;;;10.35;100.00;101425.78;5058497;28;20051;-64
2023/09/30 06:22:19;;;;;;;3.60;1.10;;;;;;;10.45;100.00;101424.63;5063682;28;20065;-65
2023/09/30 06:24:45;;;;;;;3.13;0.90;;;;;;;10.68;100.00;101417.94;5060596;28;20040;-64
2023/09/30 06:27:13;;;;;;;3.03;1.20;;;;;;;10.88;100.00;101427.88;5056432;28;20167;-65
2023/09/30 06:29:42;;;;;;;3.17;0.90;;;;;;;10.85;100.00;101416.59;5054899;28;20511;-64
2023/09/30 06:32:09;;;;;;;3.25;1.10;;;;;;;10.95;100.00;101429.41;5068670;28;20053;-64
2023/09/30 06:34:36;;;;;;;4.35;1.10;;;;;;;11.00;100.00;101424.91;5068394;28;20478;-65
2023/09/30 06:37:02;;;;;;;1.77;0.90;;;;;;;11.07;100.00;101422.97;5062417;28;20057;-65
2023/09/30 06:39:29;;;;;;;2.83;0.90;;;;;;;11.16;100.00;101432.31;5066648;28;20048;-65
2023/09/30 06:41:56;;;;;;;2.35;0.90;;;;;;;11.19;100.00;101435.72;5068746;28;20048;-64
2023/09/30 06:44:25;;;;;;;3.15;1.00;;;;;;;11.21;100.00;101431.28;5071682;28;20487;-64
2023/09/30 06:46:51;;;;;;;2.03;0.88;;;;;;;11.26;100.00;101436.41;5057199;28;20497;-65
2023/09/30 06:49:18;;;;;;;3.83;1.17;;;;;;;11.20;100.00;101444.44;5057243;28;20103;-64
2023/09/30 06:51:45;;;;;;;4.55;0.73;;;;;;;11.12;100.00;101454.25;5055413;28;20478;-64
2023/09/30 06:54:12;;;;;;;2.75;1.00;;;;;;;11.13;100.00;101458.63;5057959;28;20045;-64
2023/09/30 06:56:41;;;;;;;2.50;0.90;;;;;;;11.42;100.00;101465.66;5058348;28;20060;-65
2023/09/30 06:59:07;;;;;;;3.75;1.00;;;;;;;11.45;100.00;101441.94;5055768;28;20057;-65
2023/09/30 07:01:34;;;;;;;1.60;0.70;;;;;;;11.64;100.00;101455.38;5069601;28;20048;-65
2023/09/30 07:04:01;;;;;;;4.38;0.90;;;;;;;11.69;100.00;101456.09;5069395;28;20131;-65
2023/09/30 07:06:28;;;;;;;1.75;0.80;;;;;;;11.69;100.00;101453.47;5071936;28;20482;-65
2023/09/30 07:08:55;;;;;;;3.65;0.95;;;;;;;11.78;100.00;101454.94;5065347;28;20068;-64
2023/09/30 07:11:34;;;;;;;5.10;1.10;;;;;;;11.94;100.00;101471.09;5066767;28;20552;-65
2023/09/30 07:14:01;;;;;;;2.78;0.95;;;;;;;11.83;100.00;101463.53;5056522;28;20049;-65
2023/09/30 07:16:27;;;;;;;2.47;0.90;;;;;;;12.00;100.00;101467.41;5057862;28;20064;-65
2023/09/30 07:18:55;;;;;;;2.90;0.88;;;;;;;11.95;100.00;101442.19;5061856;28;20048;-65
2023/09/30 07:21:22;;;;;;;1.63;0.90;;;;;;;12.00;100.00;101439.41;5062886;28;20049;-64
2023/09/30 07:23:48;;;;;;;2.03;0.80;;;;;;;12.09;100.00;101440.88;5070864;28;20619;-64
2023/09/30 07:26:15;;;;;;;1.88;0.80;;;;;;;12.15;100.00;101448.56;5058418;28;20313;-64
2023/09/30 07:28:42;;;;;;;3.08;0.90;;;;;;;12.19;100.00;101444.91;5068837;28;20131;-64
2023/09/30 07:31:08;;;;;;;1.23;0.75;;;;;;;12.15;100.00;101440.69;5052337;28;20067;-65
2023/09/30 07:33:35;;;;;;;0.90;0.70;;;;;;;12.22;100.00;101449.22;5058436;28;20410;-65
2023/09/30 07:36:02;;;;;;;2.58;1.00;;;;;;;12.24;100.00;101458.75;5055145;28;20106;-65
2023/09/30 07:38:29;;;;;;;3.97;1.05;;;;;;;12.29;100.00;101456.84;5056273;28;20049;-65
2023/09/30 07:40:56;;;;;;;1.17;0.70;;;;;;;12.22;100.00;101451.84;5061137;28;20047;-65
2023/09/30 07:43:23;;;;;;;2.03;0.80;;;;;;;12.23;100.00;101458.78;5068424;28;20059;-65
2023/09/30 07:45:49;;;;;;;1.73;0.80;;;;;;;12.25;100.00;101460.47;5058894;28;20041;-65
2023/09/30 07:48:16;;;;;;;4.03;1.35;;;;;;;12.37;100.00;101464.44;5060203;28;20118;-65
2023/09/30 07:50:43;;;;;;;2.05;0.80;;;;;;;12.39;100.00;101473.13;5071567;28;20470;-65
2023/09/30 07:53:09;;;;;;;2.33;0.82;;;;;;;12.49;100.00;101482.41;5057558;28;20048;-65
2023/09/30 07:55:36;;;;;;;2.17;0.70;;;;;;;12.54;100.00;101484.91;5086715;28;20063;-65
2023/09/30 07:58:03;;;;;;;3.10;0.90;;;;;;;12.54;100.00;101469.13;5062053;28;20060;-65
2023/09/30 08:00:30;;;;;;;1.95;0.82;;;;;;;12.54;100.00;101470.00;5050309;28;20479;-65
2023/09/30 08:02:58;;;;;;;1.60;0.68;;;;;;;12.55;100.00;101465.59;5070675;28;20066;-65
2023/09/30 08:05:25;;;;;;;3.25;0.82;;;;;;;12.58;100.00;101477.78;5057006;28;20048;-65
2023/09/30 08:07:51;;;;;;;2.65;1.00;;;;;;;12.45;100.00;101480.81;5060580;28;20106;-65
2023/09/30 08:10:18;;;;;;;2.05;0.90;;;;;;;12.45;100.00;101487.84;5055538;28;20059;-65
2023/09/30 08:12:51;;;;;;;3.08;0.90;;;;;;;12.20;100.00;101480.78;5063572;28;20482;-65
2023/09/30 08:15:18;;;;;;;5.82;1.30;;;;;;;12.26;100.00;101471.84;5067999;28;20046;-64
2023/09/30 08:17:45;;;;;;;2.00;0.80;;;;;;;12.22;100.00;101476.31;5065269;28;20052;-65
2023/09/30 08:20:12;;;;;;;4.80;1.27;;;;;;;12.18;100.00;101466.81;5069524;28;20063;-65
2023/09/30 08:22:39;;;;;;;4.75;1.25;;;;;;;12.22;100.00;101483.34;5059361;28;20055;-65
2023/09/30 08:25:06;;;;;;;2.33;0.90;;;;;;;12.34;100.00;101489.06;5061103;28;20048;-65
2023/09/30 08:27:33;;;;;;;2.13;0.90;;;;;;;12.49;100.00;101492.06;5064366;28;20048;-65
2023/09/30 08:30:01;;;;;;;3.50;1.10;;;;;;;12.59;100.00;101487.34;5061382;28;20044;-65
2023/09/30 08:32:27;;;;;;;4.85;1.08;;;;;;;12.57;100.00;101492.69;5063782;28;20389;-65
2023/09/30 08:34:54;;;;;;;2.65;1.00;;;;;;;12.47;100.00;101496.53;5062765;28;20054;-65
2023/09/30 08:37:21;;;;;;;4.65;1.10;;;;;;;12.51;100.00;101498.97;5066671;28;20115;-65
2023/09/30 08:39:47;;;;;;;3.03;1.00;;;;;;;12.56;100.00;101493.59;5067012;28;20542;-65
2023/09/30 08:42:15;;;;;;;1.23;0.80;;;;;;;12.67;100.00;101504.56;5064629;28;20053;-65
2023/09/30 08:44:42;;;;;;;4.35;1.05;;;;;;;12.59;100.00;101500.50;5068405;28;20048;-65
2023/09/30 08:47:11;;;;;;;2.78;0.95;;;;;;;12.67;100.00;101508.97;5066202;28;20402;-65
2023/09/30 08:49:41;;;;;;;3.90;1.10;;;;;;;12.61;100.00;101515.31;5068622;28;20140;-65
2023/09/30 08:52:10;;;;;;;3.70;1.10;;;;;;;12.62;100.00;101516.16;5055877;28;20482;-65
2023/09/30 08:54:38;;;;;;;3.72;1.30;;;;;;;12.85;100.00;101510.97;5065144;28;20491;-65
2023/09/30 08:57:05;;;;;;;7.40;1.70;;;;;;;12.93;100.00;101501.97;5057923;28;20411;-64
2023/09/30 08:59:35;;;;;;;7.60;1.98;;;;;;;12.97;100.00;101504.44;5053298;28;20059;-64
2023/09/30 09:02:02;;;;;;;7.32;2.10;;;;;;;13.09;100.00;101503.16;5066017;28;20131;-65
2023/09/30 09:04:29;;;;;;;7.82;2.10;;;;;;;13.11;100.00;101499.53;5053466;28;20656;-65
2023/09/30 09:06:56;;;;;;;8.02;1.63;;;;;;;13.29;100.00;101489.25;5059893;28;20048;-65
2023/09/30 09:09:23;;;;;;;4.57;1.33;;;;;;;13.04;100.00;101466.50;5060635;28;20136;-65
2023/09/30 09:11:50;;;;;;;4.55;1.30;;;;;;;13.28;100.00;101498.09;5056859;28;20072;-65
2023/09/30 09:14:17;;;;;;;3.47;1.10;;;;;;;13.33;100.00;101492.66;5062987;28;20041;-65
2023/09/30 09:16:54;;;;;;;4.72;1.38;;;;;;;13.50;100.00;101486.78;5051825;28;20037;-65
2023/09/30 09:19:21;;;;;;;5.78;1.20;;;;;;;13.33;100.00;101483.00;5064942;28;20057;-65
2023/09/30 09:22:04;;;;;;;3.15;0.90;;;;;;;13.54;100.00;101499.75;5053420;28;20091;-65
2023/09/30 09:24:36;;;;;;;3.67;0.93;;;;;;;13.48;100.00;101487.69;5052014;28;20048;-65
2023/09/30 09:27:12;;;;;;;1.92;0.80;;;;;;;13.56;100.00;101499.69;5061156;28;20758;-65
2023/09/30 09:29:39;;;;;;;3.05;0.93;;;;;;;13.68;100.00;101499.22;5059248;28;20484;-65
2023/09/30 09:32:14;;;;;;;0.63;0.63;;;;;;;13.84;100.00;101492.44;5072197;28;20053;-65
2023/09/30 09:34:43;;;;;;;1.77;0.82;;;;;;;13.81;100.00;101486.44;5053649;28;20053;-65
2023/09/30 09:37:14;;;;;;;1.10;0.80;;;;;;;13.72;100.00;101479.75;5059531;28;20048;-65
2023/09/30 09:39:52;;;;;;;1.55;0.70;;;;;;;13.92;100.00;101484.25;5065668;28;20068;-65
2023/09/30 09:42:32;;;;;;;3.75;0.93;;;;;;;13.96;100.00;101487.63;5068785;28;20796;-65
2023/09/30 09:45:05;;;;;;;0.80;0.70;;;;;;;13.98;100.00;101489.28;5056062;28;20048;-65
2023/09/30 09:47:33;;;;;;;2.35;0.80;;;;;;;13.95;100.00;101491.16;5064238;28;20044;-65
2023/09/30 09:50:03;;;;;;;4.30;0.80;;;;;;;14.01;100.00;101483.88;5059997;28;20130;-65
2023/09/30 09:52:33;;;;;;;1.40;0.73;;;;;;;14.22;100.00;101476.91;5058860;28;20670;-65
2023/09/30 09:55:02;;;;;;;4.47;0.95;;;;;;;14.22;100.00;101462.88;5050941;28;20314;-65
2023/09/30 09:57:30;;;;;;;0.63;0.60;;;;;;;14.10;100.00;101464.22;5059287;28;20076;-65
2023/09/30 09:59:59;;;;;;;2.60;0.82;;;;;;;14.31;100.00;101485.34;5065294;28;20044;-65
2023/09/30 10:02:27;;;;;;;3.65;0.80;;;;;;;14.40;100.00;101475.28;5064279;28;20071;-65
2023/09/30 10:04:56;;;;;;;1.65;0.80;;;;;;;14.36;100.00;101463.16;5062742;28;20049;-65
2023/09/30 10:07:32;;;;;;;1.45;0.85;;;;;;;14.40;100.00;101469.16;5063639;28;20478;-65
2023/09/30 10:10:02;;;;;;;4.32;1.00;;;;;;;14.19;100.00;101482.28;5057499;28;20131;-65
2023/09/30 10:12:38;;;;;;;5.85;1.58;;;;;;;13.85;100.00;101491.53;5069002;28;20054;-65
2023/09/30 10:15:26;;;;;;;5.53;1.80;;;;;;;13.85;100.00;101501.22;5065727;28;20102;-65
2023/09/30 10:18:07;;;;;;;6.95;1.95;;;;;;;13.93;100.00;101493.84;5060283;28;20418;-65
2023/09/30 10:20:41;;;;;;;7.40;1.92;;;;;;;13.79;100.00;101483.91;5067497;28;20059;-65
2023/09/30 10:23:17;;;;;;;8.98;2.35;;;;;;;13.83;100.00;101492.53;5055933;28;20045;-65
2023/09/30 10:25:47;;;;;;;8.10;2.15;;;;;;;13.93;100.00;101488.59;5064388;28;20045;-65
2023/09/30 10:28:33;;;;;;;9.80;2.25;;;;;;;14.01;100.00;101497.06;5067113;28;20121;-65
2023/09/30 10:31:12;;;;;;;7.95;2.05;;;;;;;14.16;100.00;101492.94;5066113;28;20135;-65
2023/09/30 10:33:58;;;;;;;9.48;2.13;;;;;;;14.23;100.00;101478.59;5068234;28;20045;-65
2023/09/30 10:36:37;;;;;;;6.80;2.10;;;;;;;14.33;100.00;101457.16;5061378;28;20119;-65
2023/09/30 10:39:08;;;;;;;5.72;1.58;;;;;;;14.45;100.00;101459.28;5062262;28;20505;-65
2023/09/30 10:41:45;;;;;;;7.70;1.92;;;;;;;14.47;100.00;101475.88;5054737;28;20045;-65
2023/09/30 10:44:32;;;;;;;6.63;1.63;;;;;;;14.49;100.00;101483.72;5056566;28;20736;-65
2023/09/30 10:47:00;;;;;;;4.40;1.42;;;;;;;14.61;100.00;101477.97;5054540;28;20056;-65
2023/09/30 10:49:27;;;;;;;7.53;1.55;;;;;;;14.47;100.00;101493.47;5069255;28;20049;-65
2023/09/30 10:52:02;;;;;;;4.88;1.50;;;;;;;14.51;100.00;101497.69;5055888;28;20059;-65
2023/09/30 10:54:32;;;;;;;6.95;1.50;;;;;;;14.75;100.00;101495.81;5053387;28;20380;-65
2023/09/30 10:57:00;;;;;;;4.65;1.40;;;;;;;14.54;100.00;101487.88;5056472;28;20041;-65
2023/09/30 10:59:30;;;;;;;3.55;1.15;;;;;;;14.56;100.00;101475.50;5054299;28;20049;-65
2023/09/30 11:01:57;;;;;;;4.50;1.13;;;;;;;14.53;100.00;101467.69;5056441;28;20045;-66
2023/09/30 11:04:27;;;;;;;4.00;1.17;;;;;;;14.66;100.00;101478.63;5057620;28;20127;-66
2023/09/30 11:06:54;;;;;;;6.45;1.15;;;;;;;14.81;100.00;101479.75;5068782;28;20529;-66
2023/09/30 11:09:22;;;;;;;2.28;1.00;;;;;;;14.83;100.00;101459.44;5060141;28;20048;-66
2023/09/30 11:11:52;;;;;;;2.55;0.85;;;;;;;15.19;100.00;101469.25;5065702;28;20128;-65
2023/09/30 11:14:29;;;;;;;1.08;0.70;;;;;;;15.11;100.00;101466.97;5062841;28;20052;-65
2023/09/30 11:17:04;;;;;;;2.45;0.82;;;;;;;14.99;100.00;101470.16;5061773;28;20048;-64
2023/09/30 11:19:36;;;;;;;1.63;0.85;;;;;;;15.26;100.00;101475.97;5062815;28;20483;-65
2023/09/30 11:22:05;;;;;;;3.53;0.90;;;;;;;15.23;100.00;101469.97;5064305;28;20454;-65